sensor_id;sensor_type;location;lat;lon;timestamp;pressure;altitude;pressure_sealevel;temperature;humidity
77871;BME280;67067;46.850;7.578;2023-05-18T00:00:32;95508.50;;;8.43;43.20
77871;BME280;67067;46.850;7.578;2023-05-18T00:01:37;95497.22;;;8.47;43.25
77871;BME280;67067;46.850;7.578;2023-05-18T00:02:41;95505.72;;;8.49;43.14
77871;BME280;67067;46.850;7.578;2023-05-18T00:03:43;95503.66;;;8.40;43.67
77871;BME280;67067;46.850;7.578;2023-05-18T00:04:47;95494.13;;;8.39;43.75
77871;BME280;67067;46.850;7.578;2023-05-18T00:05:49;95498.03;;;8.36;43.63
77871;BME280;67067;46.850;7.578;2023-05-18T00:06:51;95492.88;;;8.41;43.68
77871;BME280;67067;46.850;7.578;2023-05-18T00:08:03;95495.72;;;8.40;43.67
77871;BME280;67067;46.850;7.578;2023-05-18T00:09:05;95489.56;;;8.34;43.81
77871;BME280;67067;46.850;7.578;2023-05-18T00:10:06;95490.25;;;8.29;44.19
77871;BME280;67067;46.850;7.578;2023-05-18T00:11:08;95487.03;;;8.27;44.04
77871;BME280;67067;46.850;7.578;2023-05-18T00:12:10;95489.09;;;8.25;44.14
77871;BME280;67067;46.850;7.578;2023-05-18T00:13:12;95484.63;;;8.26;44.22
77871;BME280;67067;46.850;7.578;2023-05-18T00:14:13;95485.78;;;8.30;43.79
77871;BME280;67067;46.850;7.578;2023-05-18T00:15:17;95488.63;;;8.28;44.07
77871;BME280;67067;46.850;7.578;2023-05-18T00:16:19;95488.53;;;8.35;44.17
77871;BME280;67067;46.850;7.578;2023-05-18T00:17:20;95488.31;;;8.25;44.01
77871;BME280;67067;46.850;7.578;2023-05-18T00:18:22;95485.75;;;8.18;44.36
77871;BME280;67067;46.850;7.578;2023-05-18T00:19:25;95483.56;;;8.15;44.19
77871;BME280;67067;46.850;7.578;2023-05-18T00:20:27;95480.16;;;8.14;44.28
77871;BME280;67067;46.850;7.578;2023-05-18T00:21:29;95477.81;;;8.06;44.26
77871;BME280;67067;46.850;7.578;2023-05-18T00:22:34;95480.59;;;8.11;44.20
77871;BME280;67067;46.850;7.578;2023-05-18T00:23:38;95474.75;;;8.09;44.26
77871;BME280;67067;46.850;7.578;2023-05-18T00:24:42;95475.66;;;8.03;44.38
77871;BME280;67067;46.850;7.578;2023-05-18T00:25:46;95483.91;;;7.95;44.64
77871;BME280;67067;46.850;7.578;2023-05-18T00:26:47;95472.22;;;7.90;44.90
77871;BME280;67067;46.850;7.578;2023-05-18T00:27:50;95470.16;;;7.92;44.97
77871;BME280;67067;46.850;7.578;2023-05-18T00:28:52;95467.16;;;8.01;44.44
77871;BME280;67067;46.850;7.578;2023-05-18T00:29:54;95465.66;;;7.69;45.32
77871;BME280;67067;46.850;7.578;2023-05-18T00:30:55;95465.47;;;7.83;44.95
77871;BME280;67067;46.850;7.578;2023-05-18T00:31:58;95465.09;;;7.79;44.95
77871;BME280;67067;46.850;7.578;2023-05-18T00:32:59;95464.88;;;7.69;45.31
77871;BME280;67067;46.850;7.578;2023-05-18T00:34:01;95474.72;;;7.85;44.77
77871;BME280;67067;46.850;7.578;2023-05-18T00:35:04;95473.94;;;7.85;44.97
77871;BME280;67067;46.850;7.578;2023-05-18T00:36:06;95468.75;;;7.78;45.06
77871;BME280;67067;46.850;7.578;2023-05-18T00:37:08;95467.84;;;7.84;44.74
77871;BME280;67067;46.850;7.578;2023-05-18T00:38:12;95467.84;;;7.84;45.17
77871;BME280;67067;46.850;7.578;2023-05-18T00:39:16;95461.66;;;7.67;45.36
77871;BME280;67067;46.850;7.578;2023-05-18T00:40:18;95465.09;;;7.79;44.97
77871;BME280;67067;46.850;7.578;2023-05-18T00:41:20;95456.88;;;7.75;44.98
77871;BME280;67067;46.850;7.578;2023-05-18T00:42:24;95462.56;;;7.72;45.20
77871;BME280;67067;46.850;7.578;2023-05-18T00:43:25;95467.50;;;7.69;45.43
77871;BME280;67067;46.850;7.578;2023-05-18T00:44:29;95467.16;;;7.77;44.98
77871;BME280;67067;46.850;7.578;2023-05-18T00:45:31;95465.19;;;7.72;45.08
77871;BME280;67067;46.850;7.578;2023-05-18T00:46:33;95453.06;;;7.71;45.14
77871;BME280;67067;46.850;7.578;2023-05-18T00:47:35;95456.63;;;7.77;44.89
77871;BME280;67067;46.850;7.578;2023-05-18T00:48:37;95457.50;;;7.47;46.13
77871;BME280;67067;46.850;7.578;2023-05-18T00:49:41;95459.34;;;7.58;45.54
77871;BME280;67067;46.850;7.578;2023-05-18T00:50:45;95448.91;;;7.52;46.08
77871;BME280;67067;46.850;7.578;2023-05-18T00:51:47;95453.84;;;7.48;46.15
77871;BME280;67067;46.850;7.578;2023-05-18T00:52:49;95454.41;;;7.50;46.18
77871;BME280;67067;46.850;7.578;2023-05-18T00:53:55;95452.72;;;7.68;45.71
77871;BME280;67067;46.850;7.578;2023-05-18T00:54:57;95456.84;;;7.63;45.69
77871;BME280;67067;46.850;7.578;2023-05-18T00:56:00;95457.75;;;7.57;45.83
77871;BME280;67067;46.850;7.578;2023-05-18T00:57:01;95448.25;;;7.68;45.27
77871;BME280;67067;46.850;7.578;2023-05-18T00:58:04;95453.75;;;7.67;45.33
77871;BME280;67067;46.850;7.578;2023-05-18T00:59:09;95453.38;;;7.51;46.04
77871;BME280;67067;46.850;7.578;2023-05-18T01:00:12;95460.38;;;7.57;45.61
77871;BME280;67067;46.850;7.578;2023-05-18T01:01:14;95455.63;;;7.36;46.20
77871;BME280;67067;46.850;7.578;2023-05-18T01:02:18;95454.06;;;7.46;46.08
77871;BME280;67067;46.850;7.578;2023-05-18T01:03:20;95444.91;;;7.49;46.23
77871;BME280;67067;46.850;7.578;2023-05-18T01:04:22;95450.06;;;7.56;45.86
77871;BME280;67067;46.850;7.578;2023-05-18T01:05:25;95455.00;;;7.52;46.00
77871;BME280;67067;46.850;7.578;2023-05-18T01:06:27;95455.91;;;7.46;46.75
77871;BME280;67067;46.850;7.578;2023-05-18T01:07:33;95456.94;;;7.57;46.23
77871;BME280;67067;46.850;7.578;2023-05-18T01:08:35;95451.00;;;7.61;45.65
77871;BME280;67067;46.850;7.578;2023-05-18T01:09:37;95451.78;;;7.62;45.48
77871;BME280;67067;46.850;7.578;2023-05-18T01:10:39;95453.97;;;7.65;45.84
77871;BME280;67067;46.850;7.578;2023-05-18T01:11:55;95449.84;;;7.69;45.53
77871;BME280;67067;46.850;7.578;2023-05-18T01:13:02;95448.34;;;7.50;46.43
77871;BME280;67067;46.850;7.578;2023-05-18T01:15:21;95453.97;;;7.65;45.53
77871;BME280;67067;46.850;7.578;2023-05-18T01:16:24;95457.28;;;7.60;46.09
77871;BME280;67067;46.850;7.578;2023-05-18T01:17:34;95454.88;;;7.59;46.06
77871;BME280;67067;46.850;7.578;2023-05-18T01:18:41;95450.88;;;7.56;46.18
77871;BME280;67067;46.850;7.578;2023-05-18T01:24:34;95451.09;;;7.43;46.21
77871;BME280;67067;46.850;7.578;2023-05-18T01:26:49;95449.72;;;7.52;45.95
77871;BME280;67067;46.850;7.578;2023-05-18T01:27:51;95445.69;;;7.50;45.93
77871;BME280;67067;46.850;7.578;2023-05-18T01:29:00;95454.41;;;7.50;46.02
77871;BME280;67067;46.850;7.578;2023-05-18T01:30:06;95457.84;;;7.51;46.17
77871;BME280;67067;46.850;7.578;2023-05-18T01:31:08;95453.50;;;7.56;46.23
77871;BME280;67067;46.850;7.578;2023-05-18T01:32:17;95453.72;;;7.43;46.17
77871;BME280;67067;46.850;7.578;2023-05-18T01:33:23;95454.88;;;7.47;46.54
77871;BME280;67067;46.850;7.578;2023-05-18T01:34:26;95461.16;;;7.46;46.39
77871;BME280;67067;46.850;7.578;2023-05-18T01:35:28;95459.09;;;7.48;46.10
77871;BME280;67067;46.850;7.578;2023-05-18T01:36:31;95453.97;;;7.53;45.82
77871;BME280;67067;46.850;7.578;2023-05-18T01:37:33;95449.72;;;7.52;45.87
77871;BME280;67067;46.850;7.578;2023-05-18T01:38:34;95453.38;;;7.51;45.99
77871;BME280;67067;46.850;7.578;2023-05-18T01:39:36;95448.56;;;7.48;46.00
77871;BME280;67067;46.850;7.578;2023-05-18T01:40:42;95446.69;;;7.37;46.91
77871;BME280;67067;46.850;7.578;2023-05-18T01:41:55;95453.94;;;7.41;46.88
77871;BME280;67067;46.850;7.578;2023-05-18T01:42:59;95460.34;;;7.45;46.53
77871;BME280;67067;46.850;7.578;2023-05-18T01:45:19;95456.47;;;7.48;46.36
77871;BME280;67067;46.850;7.578;2023-05-18T01:47:27;95460.19;;;7.28;46.78
77871;BME280;67067;46.850;7.578;2023-05-18T01:48:29;95459.59;;;7.14;47.05
77871;BME280;67067;46.850;7.578;2023-05-18T01:50:42;95458.00;;;7.25;46.62
77871;BME280;67067;46.850;7.578;2023-05-18T01:51:46;95446.13;;;7.34;46.15
77871;BME280;67067;46.850;7.578;2023-05-18T01:52:52;95449.47;;;7.42;45.81
77871;BME280;67067;46.850;7.578;2023-05-18T01:54:04;95447.84;;;7.41;46.00
77871;BME280;67067;46.850;7.578;2023-05-18T01:55:07;95448.28;;;7.38;46.23
77871;BME280;67067;46.850;7.578;2023-05-18T01:56:10;95448.66;;;7.41;46.29
77871;BME280;67067;46.850;7.578;2023-05-18T01:57:13;95452.69;;;7.44;45.88
77871;BME280;67067;46.850;7.578;2023-05-18T01:58:15;95448.50;;;7.24;46.80
77871;BME280;67067;46.850;7.578;2023-05-18T01:59:17;95452.41;;;7.22;46.75
77871;BME280;67067;46.850;7.578;2023-05-18T02:00:19;95448.03;;;7.27;46.56
77871;BME280;67067;46.850;7.578;2023-05-18T02:01:22;95455.59;;;7.24;46.50
77871;BME280;67067;46.850;7.578;2023-05-18T02:02:25;95445.41;;;7.15;46.48
77871;BME280;67067;46.850;7.578;2023-05-18T02:03:30;95458.00;;;7.25;46.07
77871;BME280;67067;46.850;7.578;2023-05-18T02:04:32;95447.25;;;7.27;46.23
77871;BME280;67067;46.850;7.578;2023-05-18T02:05:35;95448.50;;;7.24;46.38
77871;BME280;67067;46.850;7.578;2023-05-18T02:06:37;95443.34;;;7.29;46.02
77871;BME280;67067;46.850;7.578;2023-05-18T02:07:40;95449.19;;;7.31;45.88
77871;BME280;67067;46.850;7.578;2023-05-18T02:08:44;95454.91;;;7.28;46.08
77871;BME280;67067;46.850;7.578;2023-05-18T02:09:48;95453.69;;;7.31;46.14
77871;BME280;67067;46.850;7.578;2023-05-18T02:10:50;95450.28;;;7.12;46.71
77871;BME280;67067;46.850;7.578;2023-05-18T02:11:52;95447.34;;;7.20;46.30
77871;BME280;67067;46.850;7.578;2023-05-18T02:12:58;95456.00;;;7.09;47.02
77871;BME280;67067;46.850;7.578;2023-05-18T02:14:02;95448.81;;;7.16;46.32
77871;BME280;67067;46.850;7.578;2023-05-18T02:15:04;95450.78;;;7.21;46.18
77871;BME280;67067;46.850;7.578;2023-05-18T02:16:06;95451.56;;;7.21;46.21
77871;BME280;67067;46.850;7.578;2023-05-18T02:17:08;95443.69;;;7.21;46.23
77871;BME280;67067;46.850;7.578;2023-05-18T02:18:13;95439.56;;;7.25;46.12
77871;BME280;67067;46.850;7.578;2023-05-18T02:19:17;95444.38;;;7.28;46.10
77871;BME280;67067;46.850;7.578;2023-05-18T02:20:19;95437.97;;;7.24;46.37
77871;BME280;67067;46.850;7.578;2023-05-18T02:21:20;95445.88;;;7.24;46.39
77871;BME280;67067;46.850;7.578;2023-05-18T02:22:22;95443.81;;;7.26;46.11
77871;BME280;67067;46.850;7.578;2023-05-18T02:23:25;95451.25;;;7.29;46.15
77871;BME280;67067;46.850;7.578;2023-05-18T02:24:27;95451.38;;;7.23;46.31
77871;BME280;67067;46.850;7.578;2023-05-18T02:25:29;95444.13;;;7.18;46.19
77871;BME280;67067;46.850;7.578;2023-05-18T02:26:32;95449.19;;;7.19;46.05
77871;BME280;67067;46.850;7.578;2023-05-18T02:27:33;95450.75;;;7.09;46.59
77871;BME280;67067;46.850;7.578;2023-05-18T02:28:40;95450.94;;;7.07;46.77
77871;BME280;67067;46.850;7.578;2023-05-18T02:29:42;95446.63;;;7.13;46.47
77871;BME280;67067;46.850;7.578;2023-05-18T02:30:43;95443.06;;;7.07;47.04
77871;BME280;67067;46.850;7.578;2023-05-18T02:31:45;95448.69;;;7.11;46.57
77871;BME280;67067;46.850;7.578;2023-05-18T02:32:46;95451.19;;;7.06;46.61
77871;BME280;67067;46.850;7.578;2023-05-18T02:33:49;95454.97;;;7.10;46.44
77871;BME280;67067;46.850;7.578;2023-05-18T02:34:53;95449.34;;;7.06;46.83
77871;BME280;67067;46.850;7.578;2023-05-18T02:35:57;95444.75;;;7.01;46.84
77871;BME280;67067;46.850;7.578;2023-05-18T02:36:59;95443.94;;;7.01;46.75
77871;BME280;67067;46.850;7.578;2023-05-18T02:38:04;95445.66;;;6.95;46.69
77871;BME280;67067;46.850;7.578;2023-05-18T02:39:05;95449.09;;;6.96;46.99
77871;BME280;67067;46.850;7.578;2023-05-18T02:40:11;95446.59;;;7.01;47.00
77871;BME280;67067;46.850;7.578;2023-05-18T02:41:15;95442.88;;;6.90;47.17
77871;BME280;67067;46.850;7.578;2023-05-18T02:42:19;95449.47;;;6.81;47.70
77871;BME280;67067;46.850;7.578;2023-05-18T02:43:21;95453.38;;;6.90;47.20
77871;BME280;67067;46.850;7.578;2023-05-18T02:44:22;95444.06;;;6.94;47.04
77871;BME280;67067;46.850;7.578;2023-05-18T02:45:27;95443.59;;;6.97;47.02
77871;BME280;67067;46.850;7.578;2023-05-18T02:46:29;95445.81;;;6.82;47.35
77871;BME280;67067;46.850;7.578;2023-05-18T02:47:31;95447.75;;;6.86;47.39
77871;BME280;67067;46.850;7.578;2023-05-18T02:48:33;95443.03;;;6.95;47.03
77871;BME280;67067;46.850;7.578;2023-05-18T02:49:34;95436.16;;;6.94;46.81
77871;BME280;67067;46.850;7.578;2023-05-18T02:50:38;95439.66;;;6.88;47.31
77871;BME280;67067;46.850;7.578;2023-05-18T02:51:40;95448.19;;;6.83;47.77
77871;BME280;67067;46.850;7.578;2023-05-18T02:52:42;95440.44;;;6.88;47.29
77871;BME280;67067;46.850;7.578;2023-05-18T02:53:45;95434.84;;;6.85;47.23
77871;BME280;67067;46.850;7.578;2023-05-18T02:54:49;95440.75;;;6.80;47.45
77871;BME280;67067;46.850;7.578;2023-05-18T02:55:57;95448.31;;;6.77;47.78
77871;BME280;67067;46.850;7.578;2023-05-18T02:57:04;95440.63;;;6.75;47.93
77871;BME280;67067;46.850;7.578;2023-05-18T02:58:18;95448.72;;;6.73;47.61
77871;BME280;67067;46.850;7.578;2023-05-18T02:59:35;95440.25;;;6.71;47.61
77871;BME280;67067;46.850;7.578;2023-05-18T03:00:36;95435.56;;;6.73;47.74
77871;BME280;67067;46.850;7.578;2023-05-18T03:01:38;95440.47;;;6.70;47.70
77871;BME280;67067;46.850;7.578;2023-05-18T03:02:41;95433.63;;;6.69;47.97
77871;BME280;67067;46.850;7.578;2023-05-18T03:03:45;95436.31;;;6.62;47.85
77871;BME280;67067;46.850;7.578;2023-05-18T03:04:47;95430.47;;;6.60;48.15
77871;BME280;67067;46.850;7.578;2023-05-18T03:05:54;95437.63;;;6.53;48.16
77871;BME280;67067;46.850;7.578;2023-05-18T03:06:56;95438.75;;;6.45;48.76
77871;BME280;67067;46.850;7.578;2023-05-18T03:07:58;95430.13;;;6.56;48.22
77871;BME280;67067;46.850;7.578;2023-05-18T03:09:04;95437.19;;;6.56;48.07
77871;BME280;67067;46.850;7.578;2023-05-18T03:10:13;95435.81;;;6.53;48.10
77871;BME280;67067;46.850;7.578;2023-05-18T03:11:15;95440.50;;;6.51;48.24
77871;BME280;67067;46.850;7.578;2023-05-18T03:12:17;95441.28;;;6.52;48.48
77871;BME280;67067;46.850;7.578;2023-05-18T03:13:19;95436.03;;;6.52;48.25
77871;BME280;67067;46.850;7.578;2023-05-18T03:14:20;95435.59;;;6.55;48.25
77871;BME280;67067;46.850;7.578;2023-05-18T03:15:22;95432.75;;;6.56;48.25
77871;BME280;67067;46.850;7.578;2023-05-18T03:16:24;95438.81;;;6.57;48.01
77871;BME280;67067;46.850;7.578;2023-05-18T03:17:29;95438.19;;;6.43;48.81
77871;BME280;67067;46.850;7.578;2023-05-18T03:18:30;95429.84;;;6.46;48.63
77871;BME280;67067;46.850;7.578;2023-05-18T03:19:32;95432.97;;;6.36;48.87
77871;BME280;67067;46.850;7.578;2023-05-18T03:20:35;95435.53;;;6.43;48.69
77871;BME280;67067;46.850;7.578;2023-05-18T03:21:38;95436.91;;;6.45;48.44
77871;BME280;67067;46.850;7.578;2023-05-18T03:22:40;95437.34;;;6.42;48.97
77871;BME280;67067;46.850;7.578;2023-05-18T03:23:44;95433.63;;;6.31;49.10
77871;BME280;67067;46.850;7.578;2023-05-18T03:24:46;95439.84;;;6.37;48.73
77871;BME280;67067;46.850;7.578;2023-05-18T03:25:51;95437.94;;;6.44;48.84
77871;BME280;67067;46.850;7.578;2023-05-18T03:26:56;95429.97;;;6.32;48.93
77871;BME280;67067;46.850;7.578;2023-05-18T03:28:02;95438.00;;;6.38;48.74
77871;BME280;67067;46.850;7.578;2023-05-18T03:29:03;95429.38;;;6.30;49.54
77871;BME280;67067;46.850;7.578;2023-05-18T03:30:05;95436.47;;;6.30;49.23
77871;BME280;67067;46.850;7.578;2023-05-18T03:31:07;95435.47;;;6.31;49.06
77871;BME280;67067;46.850;7.578;2023-05-18T03:32:09;95439.56;;;6.27;49.28
77871;BME280;67067;46.850;7.578;2023-05-18T03:33:11;95437.13;;;6.25;49.45
77871;BME280;67067;46.850;7.578;2023-05-18T03:34:13;95445.25;;;6.24;49.68
77871;BME280;67067;46.850;7.578;2023-05-18T03:35:15;95444.38;;;6.30;49.02
77871;BME280;67067;46.850;7.578;2023-05-18T03:36:19;95440.72;;;6.31;49.19
77871;BME280;67067;46.850;7.578;2023-05-18T03:37:22;95441.50;;;6.31;49.18
77871;BME280;67067;46.850;7.578;2023-05-18T03:38:24;95431.81;;;6.32;49.25
77871;BME280;67067;46.850;7.578;2023-05-18T03:39:32;95429.31;;;6.37;49.04
77871;BME280;67067;46.850;7.578;2023-05-18T03:40:33;95442.22;;;6.39;49.11
77871;BME280;67067;46.850;7.578;2023-05-18T03:41:35;95432.59;;;6.32;49.38
77871;BME280;67067;46.850;7.578;2023-05-18T03:42:37;95433.84;;;6.30;49.48
77871;BME280;67067;46.850;7.578;2023-05-18T03:43:39;95439.47;;;6.34;49.21
77871;BME280;67067;46.850;7.578;2023-05-18T03:44:41;95441.00;;;6.41;49.19
77871;BME280;67067;46.850;7.578;2023-05-18T03:45:43;95442.63;;;6.24;49.89
77871;BME280;67067;46.850;7.578;2023-05-18T03:46:45;95439.69;;;6.32;49.39
77871;BME280;67067;46.850;7.578;2023-05-18T03:47:47;95443.13;;;6.32;49.35
77871;BME280;67067;46.850;7.578;2023-05-18T03:48:49;95435.16;;;6.39;49.08
77871;BME280;67067;46.850;7.578;2023-05-18T03:49:55;95443.06;;;6.39;49.36
77871;BME280;67067;46.850;7.578;2023-05-18T03:50:56;95437.50;;;6.29;49.26
77871;BME280;67067;46.850;7.578;2023-05-18T03:52:02;95442.38;;;6.25;49.75
77871;BME280;67067;46.850;7.578;2023-05-18T03:53:06;95443.34;;;6.31;49.19
77871;BME280;67067;46.850;7.578;2023-05-18T03:54:09;95439.56;;;6.27;49.41
77871;BME280;67067;46.850;7.578;2023-05-18T03:55:10;95434.28;;;6.27;49.49
77871;BME280;67067;46.850;7.578;2023-05-18T03:56:12;95444.38;;;6.30;49.39
77871;BME280;67067;46.850;7.578;2023-05-18T03:57:17;95442.19;;;6.27;49.62
77871;BME280;67067;46.850;7.578;2023-05-18T03:58:18;95449.38;;;6.13;50.20
77871;BME280;67067;46.850;7.578;2023-05-18T03:59:20;95444.06;;;6.20;49.65
77871;BME280;67067;46.850;7.578;2023-05-18T04:00:22;95440.78;;;6.24;49.67
77871;BME280;67067;46.850;7.578;2023-05-18T04:01:24;95444.00;;;6.26;49.30
77871;BME280;67067;46.850;7.578;2023-05-18T04:02:25;95443.63;;;6.23;49.56
77871;BME280;67067;46.850;7.578;2023-05-18T04:03:27;95447.28;;;6.22;49.66
77871;BME280;67067;46.850;7.578;2023-05-18T04:04:31;95451.53;;;6.23;49.44
77871;BME280;67067;46.850;7.578;2023-05-18T04:05:32;95445.25;;;6.24;49.49
77871;BME280;67067;46.850;7.578;2023-05-18T04:06:34;95455.81;;;6.17;50.24
77871;BME280;67067;46.850;7.578;2023-05-18T04:07:38;95449.69;;;6.23;49.67
77871;BME280;67067;46.850;7.578;2023-05-18T04:08:44;95442.63;;;6.24;50.06
77871;BME280;67067;46.850;7.578;2023-05-18T04:09:46;95450.66;;;6.29;49.80
77871;BME280;67067;46.850;7.578;2023-05-18T04:10:51;95452.75;;;6.39;49.36
77871;BME280;67067;46.850;7.578;2023-05-18T04:11:54;95453.13;;;6.42;49.38
77871;BME280;67067;46.850;7.578;2023-05-18T04:12:56;95450.50;;;6.42;49.30
77871;BME280;67067;46.850;7.578;2023-05-18T04:13:57;95454.00;;;6.36;49.85
77871;BME280;67067;46.850;7.578;2023-05-18T04:15:01;95450.50;;;6.42;49.30
77871;BME280;67067;46.850;7.578;2023-05-18T04:16:04;95454.75;;;6.43;49.34
77871;BME280;67067;46.850;7.578;2023-05-18T04:17:06;95450.28;;;6.44;49.52
77871;BME280;67067;46.850;7.578;2023-05-18T04:18:09;95456.94;;;6.46;49.27
77871;BME280;67067;46.850;7.578;2023-05-18T04:19:11;95459.50;;;6.53;49.21
77871;BME280;67067;46.850;7.578;2023-05-18T04:20:14;95455.91;;;6.48;49.52
77871;BME280;67067;46.850;7.578;2023-05-18T04:21:15;95463.22;;;6.45;49.46
77871;BME280;67067;46.850;7.578;2023-05-18T04:22:18;95459.56;;;6.46;49.27
77871;BME280;67067;46.850;7.578;2023-05-18T04:23:20;95457.38;;;6.43;49.16
77871;BME280;67067;46.850;7.578;2023-05-18T04:24:23;95458.38;;;6.42;49.19
77871;BME280;67067;46.850;7.578;2023-05-18T04:25:25;95455.31;;;6.45;49.53
77871;BME280;67067;46.850;7.578;2023-05-18T04:26:28;95466.47;;;6.41;49.47
77871;BME280;67067;46.850;7.578;2023-05-18T04:27:30;95462.34;;;6.33;49.61
77871;BME280;67067;46.850;7.578;2023-05-18T04:28:32;95455.69;;;6.30;50.08
77871;BME280;67067;46.850;7.578;2023-05-18T04:29:34;95461.53;;;6.32;50.08
77871;BME280;67067;46.850;7.578;2023-05-18T04:32:33;95466.72;;;6.39;49.89
77871;BME280;67067;46.850;7.578;2023-05-18T04:33:37;95472.50;;;6.48;49.42
77871;BME280;67067;46.850;7.578;2023-05-18T04:34:39;95467.69;;;6.45;49.62
77871;BME280;67067;46.850;7.578;2023-05-18T04:35:41;95469.50;;;6.44;49.69
77871;BME280;67067;46.850;7.578;2023-05-18T04:36:43;95473.72;;;6.45;49.38
77871;BME280;67067;46.850;7.578;2023-05-18T04:37:45;95470.66;;;6.49;49.46
77871;BME280;67067;46.850;7.578;2023-05-18T04:38:51;95469.34;;;6.39;49.83
77871;BME280;67067;46.850;7.578;2023-05-18T04:39:56;95471.34;;;6.44;49.92
77871;BME280;67067;46.850;7.578;2023-05-18T04:41:06;95474.31;;;6.48;49.53
77871;BME280;67067;46.850;7.578;2023-05-18T04:42:09;95474.97;;;6.43;50.01
77871;BME280;67067;46.850;7.578;2023-05-18T04:43:10;95472.94;;;6.45;49.82
77871;BME280;67067;46.850;7.578;2023-05-18T04:44:12;95480.59;;;6.46;49.62
77871;BME280;67067;46.850;7.578;2023-05-18T04:45:17;95475.34;;;6.46;49.72
77871;BME280;67067;46.850;7.578;2023-05-18T04:46:21;95475.13;;;6.48;50.05
77871;BME280;67067;46.850;7.578;2023-05-18T04:47:23;95481.56;;;6.52;49.64
77871;BME280;67067;46.850;7.578;2023-05-18T04:48:25;95475.41;;;6.58;49.72
77871;BME280;67067;46.850;7.578;2023-05-18T04:49:27;95473.56;;;6.59;49.80
77871;BME280;67067;46.850;7.578;2023-05-18T04:50:34;95484.09;;;6.59;50.01
77871;BME280;67067;46.850;7.578;2023-05-18T04:51:38;95483.22;;;6.65;49.33
77871;BME280;67067;46.850;7.578;2023-05-18T04:52:42;95478.03;;;6.77;49.11
77871;BME280;67067;46.850;7.578;2023-05-18T04:53:52;95476.78;;;6.61;49.87
77871;BME280;67067;46.850;7.578;2023-05-18T04:54:56;95480.44;;;6.60;49.83
77871;BME280;67067;46.850;7.578;2023-05-18T04:55:57;95486.88;;;6.64;49.39
77871;BME280;67067;46.850;7.578;2023-05-18T04:57:01;95481.16;;;6.67;49.73
77871;BME280;67067;46.850;7.578;2023-05-18T04:58:07;95477.97;;;6.65;49.60
77871;BME280;67067;46.850;7.578;2023-05-18T04:59:10;95486.88;;;6.64;49.85
77871;BME280;67067;46.850;7.578;2023-05-18T05:00:12;95485.19;;;6.70;49.61
77871;BME280;67067;46.850;7.578;2023-05-18T05:01:14;95479.25;;;6.74;49.54
77871;BME280;67067;46.850;7.578;2023-05-18T05:02:16;95482.25;;;6.78;49.72
77871;BME280;67067;46.850;7.578;2023-05-18T05:03:18;95484.31;;;6.76;49.62
77871;BME280;67067;46.850;7.578;2023-05-18T05:04:20;95485.47;;;6.80;49.38
77871;BME280;67067;46.850;7.578;2023-05-18T05:05:23;95479.44;;;6.80;49.67
77871;BME280;67067;46.850;7.578;2023-05-18T05:06:24;95487.53;;;6.78;49.51
77871;BME280;67067;46.850;7.578;2023-05-18T05:07:26;95484.91;;;6.78;49.47
77871;BME280;67067;46.850;7.578;2023-05-18T05:08:28;95486.06;;;6.82;49.88
77871;BME280;67067;46.850;7.578;2023-05-18T05:09:29;95488.03;;;6.87;49.79
77871;BME280;67067;46.850;7.578;2023-05-18T05:10:34;95491.41;;;6.94;49.57
77871;BME280;67067;46.850;7.578;2023-05-18T05:11:35;95490.75;;;6.99;49.20
77871;BME280;67067;46.850;7.578;2023-05-18T05:12:37;95498.44;;;7.00;49.34
77871;BME280;67067;46.850;7.578;2023-05-18T05:13:39;95495.22;;;6.98;49.46
77871;BME280;67067;46.850;7.578;2023-05-18T05:14:40;95496.00;;;6.99;49.68
77871;BME280;67067;46.850;7.578;2023-05-18T05:15:42;95496.97;;;7.04;49.35
77871;BME280;67067;46.850;7.578;2023-05-18T05:16:44;95500.16;;;7.07;49.47
77871;BME280;67067;46.850;7.578;2023-05-18T05:17:45;95491.75;;;7.16;49.26
77871;BME280;67067;46.850;7.578;2023-05-18T05:18:47;95498.38;;;7.19;48.80
77871;BME280;67067;46.850;7.578;2023-05-18T05:19:50;95493.63;;;7.28;49.05
77871;BME280;67067;46.850;7.578;2023-05-18T05:20:51;95497.28;;;7.27;48.65
77871;BME280;67067;46.850;7.578;2023-05-18T05:21:53;95496.00;;;7.29;48.63
77871;BME280;67067;46.850;7.578;2023-05-18T05:22:55;95498.44;;;7.31;48.60
77871;BME280;67067;46.850;7.578;2023-05-18T05:23:59;95494.78;;;7.32;48.70
77871;BME280;67067;46.850;7.578;2023-05-18T05:25:05;95499.81;;;7.33;48.59
77871;BME280;67067;46.850;7.578;2023-05-18T05:26:07;95499.59;;;7.35;48.92
77871;BME280;67067;46.850;7.578;2023-05-18T05:27:09;95503.50;;;7.44;48.86
77871;BME280;67067;46.850;7.578;2023-05-18T05:28:10;95504.47;;;7.50;48.37
77871;BME280;67067;46.850;7.578;2023-05-18T05:29:12;95494.25;;;7.54;48.66
77871;BME280;67067;46.850;7.578;2023-05-18T05:30:13;95497.84;;;7.59;48.50
77871;BME280;67067;46.850;7.578;2023-05-18T05:31:17;95504.25;;;7.63;48.57
77871;BME280;67067;46.850;7.578;2023-05-18T05:32:19;95493.59;;;7.70;48.46
77871;BME280;67067;46.850;7.578;2023-05-18T05:33:20;95495.91;;;7.67;48.45
77871;BME280;67067;46.850;7.578;2023-05-18T05:34:22;95496.38;;;7.75;48.24
77871;BME280;67067;46.850;7.578;2023-05-18T05:35:27;95504.41;;;7.81;48.23
77871;BME280;67067;46.850;7.578;2023-05-18T05:36:32;95496.97;;;7.89;47.95
77871;BME280;67067;46.850;7.578;2023-05-18T05:37:34;95500.41;;;8.02;47.46
77871;BME280;67067;46.850;7.578;2023-05-18T05:38:36;95496.28;;;8.06;47.45
77871;BME280;67067;46.850;7.578;2023-05-18T05:39:41;95501.56;;;8.06;47.76
77871;BME280;67067;46.850;7.578;2023-05-18T05:40:45;95499.50;;;8.08;47.33
77871;BME280;67067;46.850;7.578;2023-05-18T05:41:47;95503.06;;;8.14;47.15
77871;BME280;67067;46.850;7.578;2023-05-18T05:42:48;95498.81;;;8.13;47.39
77871;BME280;67067;46.850;7.578;2023-05-18T05:43:50;95493.31;;;8.14;47.23
77871;BME280;67067;46.850;7.578;2023-05-18T05:44:52;95496.53;;;8.28;46.88
77871;BME280;67067;46.850;7.578;2023-05-18T05:45:54;95492.75;;;8.24;46.58
77871;BME280;67067;46.850;7.578;2023-05-18T05:46:56;95495.06;;;8.20;46.97
77871;BME280;67067;46.850;7.578;2023-05-18T05:47:58;95497.47;;;8.34;46.90
77871;BME280;67067;46.850;7.578;2023-05-18T05:49:00;95496.09;;;8.43;46.92
77871;BME280;67067;46.850;7.578;2023-05-18T05:50:06;95506.84;;;8.54;46.75
77871;BME280;67067;46.850;7.578;2023-05-18T05:51:09;95502.72;;;8.58;46.43